Latest Weather Observations for Gelantipy

IDV60801

Issued at 2:05 pm EST Thursday 24 July 2014 (issued every 30 minutes, with the page automatically refreshed every 10 minutes)

About weather observations | Map of weather stations | Latest weather observations for VIC | Other Formats
Station Details ID: 084142 Name: GELANTIPY Lat: -37.22 Lon: 148.26 Height: 755.0 m
Data from the previous 72 hours. | See also: Recent months at Gelantipy
Date/Time
EST
Temp
°C
App
Temp
°C
Dew
Point
Rel
Hum
%
Delta-T
°C
Wind Press
QNH
hPa
Press
MSL
hPa
Rain
since 9 am
mm
Dir
 
Spd
km/h
Gust
km/h
Spd
kts
Gust
kts
24/02:00pm 8.1 2.7 1.3 62 2.9 NNE 19 24 10 13 1015.6 1016.6 0.0
24/01:30pm 7.6 1.9 0.8 62 2.8 NNE 20 26 11 14 1015.8 - 0.0
24/01:00pm 7.1 1.4 0.5 63 2.7 NNE 20 24 11 13 1016.0 1017.1 0.0
24/12:30pm 7.4 1.6 -0.3 58 3.1 NNE 20 28 11 15 1016.3 - 0.0
24/12:00pm 7.9 1.7 -0.3 56 3.4 NNE 22 30 12 16 1016.8 1017.9 0.0
24/11:30am 5.8 0.5 -0.5 64 2.5 NE 17 20 9 11 1017.4 - 0.0
24/11:00am 5.6 -0.1 -0.4 65 2.4 NNE 19 24 10 13 1018.1 1019.2 0.0
24/10:30am 5.6 -0.3 -1.1 62 2.6 NNE 20 26 11 14 1018.3 - 0.0
24/10:00am 4.8 -1.5 -1.0 66 2.3 NNE 22 26 12 14 1018.5 1019.6 0.0
24/09:30am 4.3 -1.6 -0.9 69 2.0 NNE 20 28 11 15 1018.5 - 0.0
24/09:00am 4.4 -0.9 -0.6 70 2.0 NNE 17 22 9 12 1018.5 1019.6 0.0
24/08:30am 4.4 -2.3 -1.2 67 2.2 N 24 30 13 16 1018.1 - 0.0
24/08:00am 3.5 -3.3 -1.6 69 1.9 N 24 30 13 16 1018.0 1019.1 0.0
24/07:30am 2.9 -3.5 -1.6 72 1.7 N 22 28 12 15 1017.9 - 0.0
24/07:00am 1.8 -4.2 -1.3 80 1.2 NNE 20 26 11 14 1017.8 1018.9 0.0
24/06:30am 1.7 -4.3 -1.2 81 1.1 N 20 24 11 13 1017.8 - 0.0
24/06:00am 2.3 -4.0 -1.0 79 1.2 N 22 26 12 14 1017.6 1018.7 0.0
24/05:30am 2.5 -3.4 -1.1 77 1.4 N 20 24 11 13 1017.5 - 0.0
24/05:00am 2.0 -3.9 -0.9 81 1.1 NNE 20 24 11 13 1017.6 1018.7 0.0
24/04:30am 2.2 -3.5 -0.7 81 1.1 NNE 19 22 10 12 1017.7 - 0.0
24/04:00am 2.1 -3.3 -1.0 80 1.2 NNE 17 20 9 11 1017.9 1019.0 0.0
24/03:30am 1.1 -3.9 -1.3 84 0.9 NNE 15 19 8 10 1017.9 - 0.0
24/03:00am 0.8 -4.6 -1.6 84 0.9 NNE 17 19 9 10 1017.9 1019.0 0.0
24/02:30am 1.5 -3.9 -1.6 80 1.1 NNE 17 20 9 11 1018.0 - 0.0
24/02:00am 1.8 -3.7 -1.8 77 1.3 NNE 17 19 9 10 1018.2 1019.4 0.0
24/01:30am 1.9 -3.5 -1.3 79 1.2 NNE 17 19 9 10 1018.3 - 0.0
24/01:00am 0.8 -4.3 -1.8 83 1.0 NNE 15 17 8 9 1018.5 1019.6 0.0
24/12:30am 2.4 -3.0 -1.2 77 1.4 NNE 17 20 9 11 1018.7 - 0.0
24/12:00am 2.0 -2.6 -1.2 79 1.2 NNE 13 17 7 9 1019.1 1020.2 0.0
 
Date/Time
EST
Temp
°C
App
Temp
°C
Dew
Point
Rel
Hum
%
Delta-T
°C
Wind Press
QNH
hPa
Press
MSL
hPa
Rain
since 9 am
mm
Dir
 
Spd
km/h
Gust
km/h
Spd
kts
Gust
kts
23/11:30pm 3.3 -2.4 -0.9 74 1.6 N 19 22 10 12 1019.6 - 0.0
23/11:00pm 2.1 -2.1 -0.8 81 1.1 N 11 15 6 8 1020.0 1021.1 0.0
23/10:30pm 3.1 -1.8 -0.5 77 1.4 N 15 19 8 10 1020.3 - 0.0
23/10:00pm 4.8 -0.5 -0.6 68 2.1 N 17 19 9 10 1020.4 1021.5 0.0
23/09:30pm 4.5 -0.4 -0.3 71 1.9 N 15 17 8 9 1020.5 - 0.0
23/09:00pm 4.7 -0.5 -0.1 71 1.9 N 17 19 9 10 1020.4 1021.5 0.0
23/08:30pm 2.7 -1.9 -0.7 78 1.3 NNE 13 17 7 9 1020.4 - 0.0
23/08:00pm 3.4 -1.1 -0.4 76 1.5 N 13 17 7 9 1020.4 1021.5 0.0
23/07:30pm 4.3 -0.2 -0.5 71 1.9 NNE 13 17 7 9 1020.2 - 0.0
23/07:00pm 4.8 0.2 -1.0 66 2.3 NNE 13 15 7 8 1020.2 1021.3 0.0
23/06:30pm 5.1 0.2 -0.7 66 2.3 NNE 15 15 8 8 1020.1 - 0.0
23/06:00pm 5.2 1.2 0.2 70 2.0 N 11 13 6 7 1020.1 1021.2 0.0
23/05:30pm 5.5 2.3 0.9 72 1.9 NNE 7 9 4 5 1020.0 - 0.0
23/05:00pm 6.5 2.3 1.8 72 2.0 N 13 17 7 9 1019.7 1020.9 0.0
23/04:30pm 7.2 3.6 2.9 74 1.9 NNE 11 13 6 7 1019.7 - 0.0
23/04:00pm 7.8 4.2 2.7 70 2.2 NNE 11 15 6 8 1019.7 1020.9 0.0
23/03:30pm 9.2 5.1 2.5 63 3.0 NE 13 17 7 9 1019.9 - 0.0
23/03:00pm 9.5 5.0 1.9 59 3.3 NNE 15 19 8 10 1020.0 1021.1 0.0
23/02:30pm 8.9 4.2 0.9 57 3.4 NNE 15 19 8 10 1019.9 - 0.0
23/02:00pm 8.9 4.2 0.6 56 3.5 NNE 15 20 8 11 1020.0 1021.1 0.0
23/01:30pm 9.2 4.0 0.4 54 3.7 NNE 17 20 9 11 1020.3 - 0.0
23/01:00pm 9.4 4.8 1.8 59 3.3 NE 15 19 8 10 1020.7 1021.9 0.0
23/12:30pm 8.9 4.3 3.5 69 2.4 NNE 17 22 9 12 1021.1 - 0.0
23/12:00pm 8.2 3.7 2.4 67 2.5 NNE 15 19 8 10 1021.7 1022.9 0.0
23/11:30am 7.9 3.4 2.2 67 2.5 NE 15 20 8 11 1022.2 - 0.0
23/11:00am 7.1 2.2 1.8 69 2.3 NNE 17 22 9 12 1022.9 1024.1 0.0
23/10:30am 6.1 0.8 1.8 74 1.8 NNE 19 26 10 14 1023.0 - 0.0
23/10:00am 5.8 1.3 2.1 77 1.6 NNE 15 19 8 10 1023.3 1024.5 0.0
23/09:30am 3.8 -1.6 1.0 82 1.1 NNE 19 24 10 13 1023.4 - 0.0
23/09:00am 3.3 -1.9 0.4 81 1.1 NNE 17 24 9 13 1023.4 1024.6 0.2
23/08:30am 2.2 -2.6 -0.1 85 0.9 NNE 15 17 8 9 1023.4 - 0.0
23/08:00am 1.4 -3.5 -0.4 88 0.7 NNE 15 17 8 9 1023.2 1024.4 0.0
23/07:30am 0.6 -3.6 -1.0 89 0.6 NNE 11 15 6 8 1023.1 - 0.0
23/07:00am 0.7 -3.8 -0.6 91 0.5 NNE 13 17 7 9 1022.9 1024.1 0.0
23/06:30am 0.1 -4.1 -0.9 93 0.4 NNE 11 13 6 7 1022.8 - 0.0
23/06:00am 0.6 -4.7 -0.5 92 0.4 NNE 17 19 9 10 1022.4 1023.6 0.0
23/05:30am 0.9 -3.2 -0.4 91 0.5 NNE 11 17 6 9 1022.3 - 0.0
23/05:00am 1.1 -3.7 0.2 94 0.3 NE 15 19 8 10 1022.2 1023.4 0.0
23/04:30am 0.9 -3.6 0.0 94 0.3 NNE 13 17 7 9 1022.1 - 0.0
23/04:00am 1.2 -2.8 0.3 94 0.3 NNE 11 17 6 9 1022.0 1023.2 0.0
23/03:30am 0.7 -2.4 0.1 96 0.2 NNE 6 11 3 6 1022.2 - 0.0
23/03:00am 0.2 -3.9 -0.5 95 0.3 NNE 11 15 6 8 1022.3 1023.5 0.0
23/02:30am 0.4 -4.1 0.0 97 0.2 NNE 13 17 7 9 1022.5 - 0.0
23/02:00am 0.8 -3.6 0.4 97 0.2 NNE 13 15 7 8 1022.9 1024.1 0.0
23/01:30am 0.8 -3.6 0.2 96 0.2 N 13 17 7 9 1023.1 - 0.0
23/01:00am 1.0 -3.0 0.4 96 0.2 NNE 11 13 6 7 1023.1 1024.3 0.0
23/12:30am 1.6 -1.9 1.0 96 0.2 N 9 11 5 6 1023.2 - 0.0
23/12:00am 1.6 -2.3 1.0 96 0.2 NNE 11 13 6 7 1023.5 1024.7 0.0
 
Date/Time
EST
Temp
°C
App
Temp
°C
Dew
Point
Rel
Hum
%
Delta-T
°C
Wind Press
QNH
hPa
Press
MSL
hPa
Rain
since 9 am
mm
Dir
 
Spd
km/h
Gust
km/h
Spd
kts
Gust
kts
22/11:30pm 1.3 -2.7 0.7 96 0.2 NNE 11 15 6 8 1023.7 - 0.0
22/11:00pm 1.6 -1.5 1.3 98 0.1 NNE 7 9 4 5 1023.7 1024.9 0.0
22/10:30pm 1.2 -2.0 0.6 96 0.2 N 7 9 4 5 1023.7 - 0.0
22/10:00pm 2.1 -1.4 1.5 96 0.2 N 9 11 5 6 1023.7 1024.9 0.0
22/09:30pm 1.6 -0.6 1.2 97 0.2 N 2 7 1 4 1023.7 - 0.0
22/09:00pm 2.5 -0.5 2.1 97 0.2 NE 7 9 4 5 1023.7 1024.9 0.0
22/08:30pm 2.6 1.0 2.2 97 0.2 CALM 0 0 0 0 1023.9 - 0.0
22/08:00pm 2.0 -0.9 1.3 95 0.3 N 6 6 3 3 1023.9 1025.2 0.0
22/07:30pm 2.4 -0.1 1.7 95 0.3 NE 4 9 2 5 1023.9 - 0.0
22/07:00pm 4.0 1.4 3.1 94 0.4 N 6 7 3 4 1023.8 1025.0 0.0
22/06:30pm 3.1 0.3 1.9 92 0.5 ENE 6 6 3 3 1023.7 - 0.0
22/06:00pm 5.0 3.6 3.5 90 0.7 CALM 0 0 0 0 1023.5 1024.7 0.0
22/05:30pm 5.3 3.9 3.3 87 0.9 CALM 0 0 0 0 1023.4 - 0.0
22/05:00pm 6.2 4.8 3.4 82 1.2 CALM 0 0 0 0 1023.3 1024.5 0.0
22/04:30pm 6.8 4.2 3.4 79 1.5 SSW 6 7 3 4 1023.2 - 0.0
22/04:00pm 7.3 4.5 3.4 76 1.7 S 7 11 4 6 1023.1 1024.3 0.0
22/03:30pm 8.4 5.3 3.7 72 2.1 S 9 11 5 6 1023.0 - 0.0
22/03:00pm 7.8 4.7 3.7 75 1.8 SSE 9 15 5 8 1022.8 1024.0 0.0
22/02:30pm 7.4 4.3 3.6 77 1.7 S 9 13 5 7 1022.7 - 0.0
22/02:00pm 8.2 5.4 2.9 69 2.3 SE 7 15 4 8 1022.5 1023.7 0.0
22/01:30pm 8.2 4.6 2.7 68 2.4 ESE 11 17 6 9 1022.9 - 0.0
22/01:00pm 7.0 4.0 1.9 70 2.2 ESE 7 11 4 6 1023.0 1024.2 0.0
22/12:30pm 7.2 5.2 2.3 71 2.1 WSW 2 6 1 3 1023.3 - 0.0
22/12:00pm 7.7 4.9 3.2 73 2.0 ESE 7 11 4 6 1023.6 1024.8 0.0
22/11:30am 7.9 5.2 3.8 75 1.9 SE 7 11 4 6 1024.3 - 0.0
22/11:00am 7.3 4.7 3.2 75 1.8 S 6 11 3 6 1024.7 1025.9 0.0
22/10:30am 6.7 4.1 3.1 78 1.6 S 6 9 3 5 1024.8 - 0.0
22/10:00am 6.9 5.4 3.0 76 1.7 CALM 0 0 0 0 1025.0 1026.3 0.0
22/09:30am 6.1 4.7 3.4 83 1.2 CALM 0 6 0 3 1025.0 - 0.0
22/09:00am 3.5 0.5 1.9 89 0.7 NNE 7 9 4 5 1024.9 1026.1 0.2
22/08:30am 1.7 -0.3 0.1 89 0.6 CALM 0 0 0 0 1024.6 - 0.0
22/08:00am 1.3 -0.6 0.7 96 0.2 CALM 0 0 0 0 1024.3 1025.5 0.0
22/07:30am 0.3 -1.7 -0.4 95 0.3 CALM 0 4 0 2 1024.1 - 0.0
22/07:00am 0.9 -1.0 0.3 96 0.2 CALM 0 0 0 0 1023.7 1024.9 0.0
22/06:30am 0.6 -1.8 -0.1 95 0.3 NNE 2 6 1 3 1023.5 - 0.0
22/06:00am 0.4 -1.6 -0.3 95 0.3 CALM 0 4 0 2 1023.2 1024.4 0.0
22/05:30am 0.1 -2.0 -0.7 94 0.3 CALM 0 0 0 0 1023.0 - 0.0
22/05:00am 0.0 -2.1 -0.7 95 0.3 CALM 0 0 0 0 1022.9 1024.1 0.0
22/04:30am -0.6 -2.8 -1.4 94 0.3 CALM 0 0 0 0 1022.7 - 0.0
22/04:00am 0.8 -2.6 -0.5 91 0.5 NNE 7 9 4 5 1022.7 1023.8 0.0
22/03:30am 1.2 -2.0 -0.3 90 0.6 NNE 6 7 3 4 1022.8 - 0.0
22/03:00am 0.9 -2.5 -0.5 90 0.5 NNE 7 9 4 5 1022.8 1024.0 0.0
22/02:30am 1.1 -2.7 -0.4 90 0.6 NNE 9 11 5 6 1023.0 - 0.0
22/02:00am 0.6 -3.2 -0.8 90 0.5 NNE 9 9 5 5 1023.1 1024.3 0.0
22/01:30am 0.9 -2.5 -0.4 91 0.5 NNE 7 11 4 6 1023.2 - 0.0
22/01:00am 2.1 -1.5 0.8 91 0.5 N 9 13 5 7 1023.1 1024.3 0.0
22/12:30am 0.9 -2.8 -0.1 93 0.4 NNE 9 11 5 6 1023.2 - 0.0
22/12:00am 1.2 -1.9 0.2 93 0.4 NNE 6 9 3 5 1023.4 1024.6 0.0
 
Date/Time
EST
Temp
°C
App
Temp
°C
Dew
Point
Rel
Hum
%
Delta-T
°C
Wind Press
QNH
hPa
Press
MSL
hPa
Rain
since 9 am
mm
Dir
 
Spd
km/h
Gust
km/h
Spd
kts
Gust
kts
21/11:30pm 1.9 0.1 0.9 93 0.4 CALM 0 0 0 0 1023.6 - 0.0
21/11:00pm 2.4 -0.1 1.4 93 0.4 N 4 7 2 4 1023.7 1024.9 0.0
21/10:30pm 2.2 0.4 1.5 95 0.3 CALM 0 0 0 0 1023.8 - 0.0
21/10:00pm 1.8 0.0 1.2 96 0.2 CALM 0 0 0 0 1023.9 1025.2 0.0
21/09:30pm 2.4 0.7 1.8 96 0.2 CALM 0 0 0 0 1024.1 - 0.0
21/09:00pm 2.7 1.0 2.0 95 0.3 CALM 0 0 0 0 1024.2 1025.4 0.0
21/08:30pm 2.9 0.8 1.9 93 0.4 NNE 2 7 1 4 1024.2 - 0.0
21/08:00pm 3.4 1.8 2.2 92 0.5 CALM 0 0 0 0 1024.1 1025.3 0.0
21/07:30pm 3.5 1.9 2.2 91 0.5 CALM 0 0 0 0 1024.1 - 0.0
21/07:00pm 3.4 1.7 1.9 90 0.6 CALM 0 0 0 0 1023.9 1025.2 0.0
21/06:30pm 4.0 1.2 2.2 88 0.8 W 6 6 3 3 1023.8 - 0.0
21/06:00pm 4.3 1.5 2.2 86 0.9 W 6 7 3 4 1023.5 1024.7 0.0
21/05:30pm 4.9 2.2 2.4 84 1.1 SW 6 7 3 4 1023.2 - 0.0
21/05:00pm 5.4 2.7 2.6 82 1.2 SW 6 7 3 4 1023.1 1024.3 0.0
21/04:30pm 6.4 3.6 2.1 74 1.8 S 6 9 3 5 1022.9 - 0.0
21/04:00pm 7.0 4.1 1.5 68 2.3 S 6 9 3 5 1022.7 1023.8 0.0
21/03:30pm 7.3 4.8 1.4 66 2.5 SSE 4 7 2 4 1022.5 - 0.0
21/03:00pm 7.9 5.7 0.9 61 2.9 S 2 7 1 4 1022.3 1023.5 0.0
21/02:30pm 7.7 4.6 0.4 60 3.0 S 6 7 3 4 1022.3 - 0.0

Other Formats:

Comma delimited format used in spreadsheet applications
http://www.bom.gov.au/fwo/IDV60801/IDV60801.94913.axf

JavaScript Object Notation format (JSON) in row-major order
http://www.bom.gov.au/fwo/IDV60801/IDV60801.94913.json